createdAt,value
2022-12-14T00:00:27.947Z,0.00
2022-12-14T00:01:27.933Z,0.00
2022-12-14T00:02:28.036Z,0.00
2022-12-14T00:03:28.072Z,0.00
2022-12-14T00:04:28.076Z,0.00
2022-12-14T00:05:28.088Z,0.00
2022-12-14T00:06:28.901Z,0.00
2022-12-14T00:07:28.189Z,0.00
2022-12-14T00:08:28.463Z,0.00
2022-12-14T00:09:28.901Z,0.00
2022-12-14T00:10:28.264Z,0.00
2022-12-14T00:11:28.306Z,0.00
2022-12-14T00:12:28.377Z,0.00
2022-12-14T00:13:28.374Z,0.00
2022-12-14T00:14:28.421Z,0.00
2022-12-14T00:15:28.467Z,0.00
2022-12-14T00:16:28.500Z,0.00
2022-12-14T00:17:28.587Z,0.00
2022-12-14T00:18:29.826Z,0.00
2022-12-14T00:19:28.593Z,0.00
2022-12-14T00:20:28.634Z,0.00
2022-12-14T00:21:28.675Z,0.00
2022-12-14T00:22:28.736Z,0.00
2022-12-14T00:23:28.747Z,0.00
2022-12-14T00:24:28.778Z,0.00
2022-12-14T00:25:29.394Z,0.00
2022-12-14T00:26:28.861Z,0.00
2022-12-14T00:27:28.914Z,0.00
2022-12-14T00:28:29.358Z,0.00
2022-12-14T00:29:28.973Z,0.00
2022-12-14T00:30:29.009Z,0.00
2022-12-14T00:31:30.004Z,0.00
2022-12-14T00:32:29.081Z,0.00
2022-12-14T00:33:29.141Z,0.00
2022-12-14T00:34:29.149Z,0.00
2022-12-14T00:35:29.185Z,0.00
2022-12-14T00:36:29.247Z,0.00
2022-12-14T00:37:29.257Z,0.00
2022-12-14T00:38:29.562Z,0.00
2022-12-14T00:39:29.344Z,0.00
2022-12-14T00:40:29.407Z,0.00
2022-12-14T00:41:29.419Z,0.00
2022-12-14T00:42:29.453Z,0.00
2022-12-14T00:43:29.495Z,0.00
2022-12-14T00:44:29.555Z,0.00
2022-12-14T00:45:29.558Z,0.00
2022-12-14T00:46:29.624Z,0.00
2022-12-14T00:47:29.630Z,0.00
2022-12-14T00:48:30.020Z,0.00
2022-12-14T00:49:29.734Z,0.00
2022-12-14T00:50:30.391Z,0.00
2022-12-14T00:51:29.816Z,0.00
2022-12-14T00:52:29.818Z,0.00
2022-12-14T00:53:29.866Z,0.00
2022-12-14T00:54:29.899Z,0.00
2022-12-14T00:55:29.932Z,0.00
2022-12-14T00:56:29.996Z,0.00
2022-12-14T00:57:30.004Z,0.00
2022-12-14T00:58:30.206Z,0.00
2022-12-14T00:59:30.078Z,0.00
2022-12-14T01:00:30.116Z,0.00
2022-12-14T01:01:30.291Z,0.00
2022-12-14T01:02:30.966Z,0.00
2022-12-14T01:03:30.697Z,0.00
2022-12-14T01:04:30.300Z,0.00
2022-12-14T01:05:30.889Z,0.00
2022-12-14T01:06:30.341Z,0.00
2022-12-14T01:07:30.410Z,0.00
2022-12-14T01:08:31.404Z,0.00
2022-12-14T01:09:30.483Z,0.00
2022-12-14T01:10:30.495Z,0.00
2022-12-14T01:11:30.535Z,0.00
2022-12-14T01:12:30.571Z,0.00
2022-12-14T01:13:31.403Z,0.00
2022-12-14T01:14:30.671Z,0.00
2022-12-14T01:15:30.686Z,0.00
2022-12-14T01:16:30.770Z,0.00
2022-12-14T01:17:30.753Z,0.00
2022-12-14T01:18:31.390Z,0.00
2022-12-14T01:19:30.858Z,0.00
2022-12-14T01:20:31.390Z,0.00
2022-12-14T01:21:31.904Z,0.00
2022-12-14T01:22:30.935Z,0.00
2022-12-14T01:23:30.975Z,0.00
2022-12-14T01:24:31.042Z,0.00
2022-12-14T01:25:31.897Z,0.00
2022-12-14T01:26:31.087Z,0.00
2022-12-14T01:27:31.888Z,0.00
2022-12-14T01:28:31.175Z,0.00
2022-12-14T01:29:31.225Z,0.00
2022-12-14T01:30:31.887Z,0.00
2022-12-14T01:31:31.322Z,0.00
2022-12-14T01:32:31.891Z,0.00
2022-12-14T01:33:31.345Z,0.00
2022-12-14T01:34:31.411Z,0.00
2022-12-14T01:35:32.390Z,0.00
2022-12-14T01:36:31.469Z,0.00
2022-12-14T01:37:31.496Z,0.00
2022-12-14T01:38:31.541Z,0.00
2022-12-14T01:39:31.604Z,0.00
2022-12-14T01:40:32.397Z,0.00
2022-12-14T01:41:31.652Z,0.00
2022-12-14T01:42:31.704Z,0.00
2022-12-14T01:43:31.729Z,0.00
2022-12-14T01:44:31.793Z,0.00
2022-12-14T01:45:31.796Z,0.00
2022-12-14T01:46:32.466Z,0.00
2022-12-14T01:47:31.915Z,0.00
2022-12-14T01:48:31.909Z,0.00
2022-12-14T01:49:31.952Z,0.00
2022-12-14T01:50:32.889Z,0.00
2022-12-14T01:51:32.019Z,0.00
2022-12-14T01:52:32.086Z,0.00
2022-12-14T01:53:32.094Z,0.00
2022-12-14T01:54:32.894Z,0.00
2022-12-14T01:55:32.191Z,0.00
2022-12-14T01:56:32.218Z,0.00
2022-12-14T01:57:32.270Z,0.00
2022-12-14T01:58:32.292Z,0.00
2022-12-14T01:59:32.327Z,0.00
2022-12-14T02:00:32.887Z,0.00
2022-12-14T02:01:32.543Z,0.00
2022-12-14T02:02:32.597Z,0.00
2022-12-14T02:03:32.781Z,0.00
2022-12-14T02:04:32.526Z,0.00
2022-12-14T02:05:33.389Z,0.00
2022-12-14T02:06:32.585Z,0.00
2022-12-14T02:07:34.581Z,0.00
2022-12-14T02:08:32.682Z,0.00
2022-12-14T02:09:33.580Z,0.00
2022-12-14T02:10:33.399Z,0.00
2022-12-14T02:11:32.778Z,0.00
2022-12-14T02:12:32.831Z,0.00
2022-12-14T02:13:32.841Z,0.00
2022-12-14T02:14:35.392Z,0.00
2022-12-14T02:15:32.968Z,0.00
2022-12-14T02:16:33.007Z,0.00
2022-12-14T02:17:33.001Z,0.00
2022-12-14T02:18:33.887Z,0.00
2022-12-14T02:19:33.077Z,0.00
2022-12-14T02:20:33.136Z,0.00
2022-12-14T02:21:33.153Z,0.00
2022-12-14T02:22:33.185Z,0.00
2022-12-14T02:23:33.222Z,0.00
2022-12-14T02:24:33.890Z,0.00
2022-12-14T02:25:33.329Z,0.00
2022-12-14T02:26:33.894Z,0.00
2022-12-14T02:27:33.375Z,0.00
2022-12-14T02:28:33.455Z,0.00
2022-12-14T02:29:33.448Z,0.00
2022-12-14T02:30:33.484Z,0.00
2022-12-14T02:31:33.597Z,0.00
2022-12-14T02:32:34.394Z,0.00
2022-12-14T02:33:33.636Z,0.00
2022-12-14T02:34:33.643Z,0.00
2022-12-14T02:35:34.388Z,0.00
2022-12-14T02:36:33.714Z,0.00
2022-12-14T02:37:34.391Z,0.00
2022-12-14T02:38:33.810Z,0.00
2022-12-14T02:39:33.828Z,0.00
2022-12-14T02:40:34.394Z,0.00
2022-12-14T02:41:33.909Z,0.00
2022-12-14T02:42:33.963Z,0.00
2022-12-14T02:43:34.888Z,0.00
2022-12-14T02:44:34.888Z,0.00
2022-12-14T02:45:34.056Z,0.00
2022-12-14T02:46:34.145Z,0.00
2022-12-14T02:47:34.888Z,0.00
2022-12-14T02:48:34.168Z,0.00
2022-12-14T02:49:34.888Z,0.00
2022-12-14T02:50:34.889Z,0.00
2022-12-14T02:51:34.898Z,0.00
2022-12-14T02:52:34.352Z,0.00
2022-12-14T02:53:34.888Z,0.00
2022-12-14T02:54:34.423Z,0.00
2022-12-14T02:55:34.428Z,0.00
2022-12-14T02:56:35.387Z,0.00
2022-12-14T02:57:35.395Z,0.00
2022-12-14T02:58:34.551Z,0.00
2022-12-14T02:59:34.610Z,0.00
2022-12-14T03:00:35.447Z,0.00
2022-12-14T03:01:35.640Z,0.00
2022-12-14T03:02:35.482Z,0.00
2022-12-14T03:03:35.397Z,0.00
2022-12-14T03:04:34.797Z,0.00
2022-12-14T03:05:35.387Z,0.00
2022-12-14T03:06:35.395Z,0.00
2022-12-14T03:07:34.891Z,0.00
2022-12-14T03:08:34.967Z,0.00
2022-12-14T03:09:35.886Z,0.00
2022-12-14T03:10:35.886Z,0.00
2022-12-14T03:11:35.099Z,0.00
2022-12-14T03:12:35.079Z,0.00
2022-12-14T03:13:35.897Z,0.00
2022-12-14T03:14:35.898Z,0.00
2022-12-14T03:15:35.888Z,0.00
2022-12-14T03:16:35.348Z,0.00
2022-12-14T03:17:35.897Z,0.00
2022-12-14T03:18:35.298Z,0.00
2022-12-14T03:19:35.897Z,0.00
2022-12-14T03:20:35.382Z,0.00
2022-12-14T03:21:35.449Z,0.00
2022-12-14T03:22:44.430Z,0.00
2022-12-14T03:23:35.498Z,0.00
2022-12-14T03:24:35.530Z,0.00
2022-12-14T03:25:36.430Z,0.00
2022-12-14T03:26:35.620Z,0.00
2022-12-14T03:27:35.658Z,0.00
2022-12-14T03:28:35.710Z,0.00
2022-12-14T03:29:35.720Z,0.00
2022-12-14T03:30:58.911Z,0.00
2022-12-14T03:31:35.843Z,0.00
2022-12-14T03:32:35.836Z,0.00
2022-12-14T03:33:35.888Z,0.00
2022-12-14T03:34:35.909Z,0.00
2022-12-14T03:35:36.923Z,0.00
2022-12-14T03:36:35.986Z,0.00
2022-12-14T03:37:36.040Z,0.00
2022-12-14T03:38:36.066Z,0.00
2022-12-14T03:39:36.932Z,0.00
2022-12-14T03:40:36.930Z,0.00
2022-12-14T03:41:36.167Z,0.00
2022-12-14T03:42:36.238Z,0.00
2022-12-14T03:43:36.249Z,0.00
2022-12-14T03:44:40.324Z,0.00
2022-12-14T03:45:36.958Z,0.00
2022-12-14T03:46:36.364Z,0.00
2022-12-14T03:47:36.434Z,0.00
2022-12-14T03:48:37.423Z,0.00
2022-12-14T03:49:37.425Z,0.00
2022-12-14T03:50:37.424Z,0.00
2022-12-14T03:51:37.424Z,0.00
2022-12-14T03:52:36.606Z,0.00
2022-12-14T03:53:37.431Z,0.00
2022-12-14T03:54:36.665Z,0.00
2022-12-14T03:55:36.719Z,0.00
2022-12-14T03:56:37.431Z,0.00
2022-12-14T03:57:37.421Z,0.00
2022-12-14T03:58:36.842Z,0.00
2022-12-14T03:59:37.421Z,0.00
2022-12-14T04:00:37.471Z,0.00
2022-12-14T04:01:37.507Z,0.00
2022-12-14T04:02:40.856Z,0.00
2022-12-14T04:03:37.031Z,0.00
2022-12-14T04:04:37.080Z,0.00
2022-12-14T04:05:37.071Z,0.00
2022-12-14T04:06:37.924Z,0.00
2022-12-14T04:07:37.929Z,0.00
2022-12-14T04:08:37.930Z,0.00
2022-12-14T04:09:37.246Z,0.00
2022-12-14T04:10:37.925Z,0.00
2022-12-14T04:11:37.320Z,0.00
2022-12-14T04:12:37.936Z,0.00
2022-12-14T04:13:37.384Z,0.00
2022-12-14T04:14:37.444Z,0.00
2022-12-14T04:15:37.491Z,0.00
2022-12-14T04:16:37.547Z,0.00
2022-12-14T04:17:38.435Z,0.00
2022-12-14T04:18:38.419Z,0.00
2022-12-14T04:19:37.618Z,0.00
2022-12-14T04:20:37.682Z,0.00
2022-12-14T04:21:37.713Z,0.00
2022-12-14T04:22:38.429Z,0.00
2022-12-14T04:23:38.423Z,0.00
2022-12-14T04:24:37.811Z,0.00
2022-12-14T04:25:37.863Z,0.00
2022-12-14T04:26:38.425Z,0.00
2022-12-14T04:27:38.432Z,0.00
2022-12-14T04:28:37.986Z,0.00
2022-12-14T04:29:41.458Z,0.00
2022-12-14T04:30:38.928Z,0.00
2022-12-14T04:31:38.980Z,0.00
2022-12-14T04:32:38.960Z,0.00
2022-12-14T04:33:38.180Z,0.00
2022-12-14T04:34:38.187Z,0.00
2022-12-14T04:35:38.932Z,0.00
2022-12-14T04:36:38.261Z,0.00
2022-12-14T04:37:38.929Z,0.00
2022-12-14T04:38:38.372Z,0.00
2022-12-14T04:39:38.383Z,0.00
2022-12-14T04:40:38.924Z,0.00
2022-12-14T04:41:38.467Z,0.00
2022-12-14T04:42:39.428Z,0.00
2022-12-14T04:43:38.565Z,0.00
2022-12-14T04:44:38.582Z,0.00
2022-12-14T04:45:38.657Z,0.00
2022-12-14T04:46:40.752Z,0.00
2022-12-14T04:47:38.709Z,0.00
2022-12-14T04:48:38.768Z,0.00
2022-12-14T04:49:39.423Z,0.00
2022-12-14T04:50:38.813Z,0.00
2022-12-14T04:51:38.841Z,0.00
2022-12-14T04:52:38.882Z,0.00
2022-12-14T04:53:38.964Z,0.00
2022-12-14T04:54:38.964Z,0.00
2022-12-14T04:55:39.004Z,0.00
2022-12-14T04:56:39.931Z,0.00
2022-12-14T04:57:39.078Z,0.00
2022-12-14T04:58:39.134Z,0.00
2022-12-14T04:59:39.151Z,0.00
2022-12-14T05:00:39.198Z,0.00
2022-12-14T05:01:39.303Z,0.00
2022-12-14T05:02:39.378Z,0.00
2022-12-14T05:03:39.312Z,0.00
2022-12-14T05:04:39.344Z,0.00
2022-12-14T05:05:39.379Z,0.00
2022-12-14T05:06:39.451Z,0.00
2022-12-14T05:07:39.463Z,0.00
2022-12-14T05:08:40.421Z,0.00
2022-12-14T05:09:39.532Z,0.00
2022-12-14T05:10:39.603Z,0.00
2022-12-14T05:11:53.024Z,0.00
2022-12-14T05:12:39.691Z,0.00
2022-12-14T05:13:39.693Z,0.00
2022-12-14T05:14:39.745Z,0.00
2022-12-14T05:15:39.773Z,0.00
2022-12-14T05:16:39.818Z,0.00
2022-12-14T05:17:39.841Z,0.00
2022-12-14T05:18:39.920Z,0.00
2022-12-14T05:19:39.925Z,0.00
2022-12-14T05:20:39.966Z,0.00
2022-12-14T05:21:40.927Z,0.00
2022-12-14T05:22:40.045Z,0.00
2022-12-14T05:23:40.118Z,0.00
2022-12-14T05:24:40.121Z,0.00
2022-12-14T05:25:40.158Z,0.00
2022-12-14T05:26:40.189Z,0.00
2022-12-14T05:27:40.236Z,0.00
2022-12-14T05:28:40.293Z,0.00
2022-12-14T05:29:40.318Z,0.00
2022-12-14T05:30:40.945Z,0.00
2022-12-14T05:31:40.386Z,0.00
2022-12-14T05:32:41.423Z,0.00
2022-12-14T05:33:40.457Z,0.00
2022-12-14T05:34:41.437Z,0.00
2022-12-14T05:35:41.429Z,0.00
2022-12-14T05:36:40.571Z,0.00
2022-12-14T05:37:40.635Z,0.00
2022-12-14T05:38:40.651Z,0.00
2022-12-14T05:39:40.718Z,0.00
2022-12-14T05:40:41.432Z,0.00
2022-12-14T05:41:40.772Z,0.00
2022-12-14T05:42:44.788Z,0.00
2022-12-14T05:43:40.841Z,0.00
2022-12-14T05:44:40.913Z,0.00
2022-12-14T05:45:48.472Z,0.00
2022-12-14T05:46:41.960Z,0.00
2022-12-14T05:47:41.007Z,0.00
2022-12-14T05:48:44.838Z,0.00
2022-12-14T05:49:41.104Z,0.00
2022-12-14T05:50:41.150Z,0.00
2022-12-14T05:51:41.154Z,0.00
2022-12-14T05:52:41.184Z,0.00
2022-12-14T05:53:41.228Z,0.00
2022-12-14T05:54:41.260Z,0.00
2022-12-14T05:55:41.321Z,0.00
2022-12-14T05:56:41.357Z,0.00
2022-12-14T05:57:41.416Z,0.00
2022-12-14T05:58:41.411Z,0.00
2022-12-14T05:59:41.950Z,0.00
2022-12-14T06:00:41.490Z,0.00
2022-12-14T06:01:41.578Z,0.00
2022-12-14T06:02:42.527Z,0.00
2022-12-14T06:03:41.616Z,0.00
2022-12-14T06:04:41.676Z,0.00
2022-12-14T06:05:41.687Z,0.00
2022-12-14T06:06:41.740Z,0.00
2022-12-14T06:07:41.774Z,0.00
2022-12-14T06:08:43.646Z,0.00
2022-12-14T06:09:41.852Z,0.00
2022-12-14T06:10:42.459Z,0.00
2022-12-14T06:11:42.463Z,0.00
2022-12-14T06:12:41.944Z,0.00
2022-12-14T06:13:42.018Z,0.00
2022-12-14T06:14:42.034Z,0.00
2022-12-14T06:15:42.100Z,0.00
2022-12-14T06:16:42.110Z,0.00
2022-12-14T06:17:42.142Z,0.00
2022-12-14T06:18:42.213Z,0.00
2022-12-14T06:19:42.220Z,0.00
2022-12-14T06:20:42.252Z,0.00
2022-12-14T06:21:42.290Z,0.00
2022-12-14T06:22:47.425Z,0.00
2022-12-14T06:23:42.401Z,0.00
2022-12-14T06:24:42.413Z,0.00
2022-12-14T06:25:42.443Z,0.00
2022-12-14T06:26:42.485Z,0.00
2022-12-14T06:27:42.531Z,0.00
2022-12-14T06:28:42.592Z,0.00
2022-12-14T06:29:42.631Z,0.00
2022-12-14T06:30:42.686Z,0.00
2022-12-14T06:31:42.688Z,0.00
2022-12-14T06:32:42.721Z,0.00
2022-12-14T06:33:42.766Z,0.00
2022-12-14T06:34:42.813Z,0.00
2022-12-14T06:35:42.834Z,0.00
2022-12-14T06:36:42.866Z,0.00
2022-12-14T06:37:42.924Z,0.00
2022-12-14T06:38:42.950Z,0.00
2022-12-14T06:39:42.990Z,0.00
2022-12-14T06:40:43.033Z,0.00
2022-12-14T06:41:43.062Z,0.00
2022-12-14T06:42:43.133Z,0.00
2022-12-14T06:43:43.143Z,0.00
2022-12-14T06:44:43.185Z,0.00
2022-12-14T06:45:43.209Z,0.00
2022-12-14T06:46:43.320Z,0.00
2022-12-14T06:47:43.319Z,0.00
2022-12-14T06:48:43.358Z,0.00
2022-12-14T06:49:43.360Z,0.00
2022-12-14T06:50:43.410Z,0.00
2022-12-14T06:51:43.439Z,0.00
2022-12-14T06:52:43.516Z,0.00
2022-12-14T06:53:43.544Z,0.00
2022-12-14T06:54:43.565Z,0.00
2022-12-14T06:55:44.457Z,0.00
2022-12-14T06:56:43.633Z,0.00
2022-12-14T06:57:43.671Z,0.00
2022-12-14T06:58:43.742Z,0.00
2022-12-14T06:59:43.772Z,0.00
2022-12-14T07:00:44.451Z,0.00
2022-12-14T07:01:44.599Z,0.00
2022-12-14T07:02:44.049Z,0.00
2022-12-14T07:03:43.978Z,0.00
2022-12-14T07:04:43.951Z,0.00
2022-12-14T07:05:48.848Z,0.00
2022-12-14T07:47:34.700Z,11.25
2022-12-14T07:48:35.672Z,11.25
2022-12-14T07:49:34.776Z,11.25
2022-12-14T07:50:35.665Z,11.25
2022-12-14T07:51:34.795Z,11.25
2022-12-14T07:52:37.555Z,11.25
2022-12-14T07:53:34.844Z,11.25
2022-12-14T07:54:34.870Z,11.25
2022-12-14T07:55:34.911Z,11.25
2022-12-14T07:56:34.942Z,11.25
2022-12-14T07:57:35.014Z,16.88
2022-12-14T07:58:35.026Z,16.88
2022-12-14T07:59:35.080Z,16.88
2022-12-14T08:00:35.093Z,22.50
2022-12-14T08:01:35.196Z,22.50
2022-12-14T08:02:35.306Z,22.50
2022-12-14T08:03:35.269Z,22.50
2022-12-14T08:04:35.318Z,22.50
2022-12-14T08:05:35.340Z,28.13
2022-12-14T08:06:35.460Z,28.13
2022-12-14T08:07:35.422Z,33.75
2022-12-14T08:08:35.449Z,33.75
2022-12-14T08:09:35.508Z,33.75
2022-12-14T08:10:40.177Z,39.38
2022-12-14T08:11:35.635Z,39.38
2022-12-14T08:12:35.584Z,39.38
2022-12-14T08:13:35.641Z,33.75
2022-12-14T08:14:35.679Z,33.75
2022-12-14T08:15:36.705Z,28.13
2022-12-14T08:16:35.879Z,22.50
2022-12-14T08:17:35.760Z,22.50
2022-12-14T08:18:36.690Z,28.13
2022-12-14T08:19:35.834Z,28.13
2022-12-14T08:20:36.686Z,28.13
2022-12-14T08:21:36.004Z,33.75
2022-12-14T08:22:35.990Z,39.38
2022-12-14T08:23:36.708Z,33.75
2022-12-14T08:24:36.060Z,39.38
2022-12-14T08:25:36.664Z,45.00
2022-12-14T08:26:36.240Z,50.63
2022-12-14T08:27:36.711Z,56.25
2022-12-14T08:28:36.250Z,61.88
2022-12-14T08:29:36.327Z,50.63
2022-12-14T08:30:37.177Z,50.63
2022-12-14T08:31:36.430Z,45.00
2022-12-14T08:32:37.190Z,33.75
2022-12-14T08:33:37.203Z,28.13
2022-12-14T08:34:37.210Z,45.00
2022-12-14T08:35:37.180Z,39.38
2022-12-14T08:36:36.620Z,28.13
2022-12-14T08:37:37.147Z,22.50
2022-12-14T08:38:36.632Z,28.13
2022-12-14T08:39:37.180Z,33.75
2022-12-14T08:40:37.194Z,39.38
2022-12-14T08:41:36.789Z,33.75
2022-12-14T08:42:36.758Z,28.13
2022-12-14T08:43:37.680Z,22.50
2022-12-14T08:44:37.657Z,28.13
2022-12-14T08:45:36.874Z,28.13
2022-12-14T08:46:37.044Z,28.13
2022-12-14T08:47:36.936Z,22.50
2022-12-14T08:48:36.952Z,16.88
2022-12-14T08:49:36.996Z,16.88
2022-12-14T08:50:37.643Z,28.13
2022-12-14T08:51:37.074Z,28.13
2022-12-14T08:52:37.123Z,16.88
2022-12-14T08:53:37.146Z,16.88
2022-12-14T08:54:37.211Z,28.13
2022-12-14T08:55:38.695Z,28.13
2022-12-14T08:56:37.261Z,22.50
2022-12-14T08:57:38.138Z,28.13
2022-12-14T08:58:38.145Z,28.13
2022-12-14T09:00:00.746Z,22.50
2022-12-14T09:00:38.172Z,22.50
2022-12-14T09:01:38.295Z,28.13
2022-12-14T09:02:37.618Z,33.75
2022-12-14T09:03:37.646Z,28.13
2022-12-14T09:04:37.590Z,28.13
2022-12-14T09:05:37.763Z,33.75
2022-12-14T09:06:38.331Z,39.38
2022-12-14T09:07:37.703Z,33.75
2022-12-14T09:08:38.647Z,33.75
2022-12-14T09:09:38.710Z,39.38
2022-12-14T09:10:38.647Z,33.75
2022-12-14T09:11:37.985Z,28.13
2022-12-14T09:12:38.684Z,33.75
2022-12-14T09:13:37.976Z,33.75
2022-12-14T09:14:38.085Z,39.38
2022-12-14T09:15:38.683Z,45.00
2022-12-14T09:16:38.148Z,45.00
2022-12-14T09:17:38.139Z,45.00
2022-12-14T09:18:38.667Z,45.00
2022-12-14T09:19:38.278Z,45.00
2022-12-14T09:20:38.245Z,39.38
2022-12-14T09:21:39.268Z,39.38
2022-12-14T09:22:38.335Z,39.38
2022-12-14T09:23:38.375Z,39.38
2022-12-14T09:24:38.445Z,39.38
2022-12-14T09:25:39.244Z,45.00
2022-12-14T09:26:38.483Z,45.00
2022-12-14T09:27:38.510Z,45.00
2022-12-14T09:28:38.700Z,45.00
2022-12-14T09:29:38.613Z,45.00
2022-12-14T09:30:38.650Z,45.00
2022-12-14T09:31:38.804Z,39.38
2022-12-14T09:33:00.827Z,45.00
2022-12-14T09:33:40.642Z,50.63
2022-12-14T09:35:05.109Z,50.63
2022-12-14T09:35:40.074Z,45.00
2022-12-14T09:37:02.153Z,45.00
2022-12-14T09:37:40.120Z,39.38
2022-12-14T09:38:41.427Z,39.38
2022-12-14T09:39:39.655Z,45.00
2022-12-14T09:40:39.076Z,50.63
2022-12-14T09:41:39.179Z,50.63
2022-12-14T09:42:39.236Z,50.63
2022-12-14T09:43:39.387Z,50.63
2022-12-14T09:44:41.738Z,56.25
2022-12-14T09:45:39.491Z,56.25
2022-12-14T09:46:39.541Z,61.88
2022-12-14T09:47:41.315Z,61.88
2022-12-14T11:37:11.175Z,241.88
2022-12-14T11:38:11.189Z,253.13
2022-12-14T11:39:11.224Z,258.75
2022-12-14T11:40:12.137Z,258.75
2022-12-14T11:41:12.268Z,236.25
2022-12-14T11:42:11.398Z,208.13
2022-12-14T11:43:11.376Z,230.63
2022-12-14T11:44:11.416Z,258.75
2022-12-14T11:45:11.458Z,270.00
2022-12-14T11:46:12.159Z,275.63
2022-12-14T11:47:11.565Z,275.63
2022-12-14T11:48:11.585Z,281.25
2022-12-14T11:49:11.621Z,281.25
2022-12-14T11:50:11.669Z,281.25
2022-12-14T11:51:11.739Z,275.63
2022-12-14T11:52:12.625Z,281.25
2022-12-14T11:53:11.921Z,286.88
2022-12-14T11:54:11.830Z,292.50
2022-12-14T11:55:11.905Z,303.75
2022-12-14T11:56:11.921Z,326.25
2022-12-14T11:57:11.955Z,326.25
2022-12-14T11:58:12.003Z,343.13
2022-12-14T11:59:12.042Z,343.13
2022-12-14T12:00:12.193Z,309.38
2022-12-14T12:01:12.221Z,264.38
2022-12-14T12:02:12.198Z,236.25
2022-12-14T12:03:12.250Z,219.38
2022-12-14T12:04:12.348Z,213.75
2022-12-14T12:05:12.297Z,208.13
2022-12-14T12:06:12.349Z,208.13
2022-12-14T12:07:12.389Z,202.50
2022-12-14T12:08:12.422Z,208.13
2022-12-14T12:09:12.505Z,213.75
2022-12-14T12:10:13.129Z,213.75
2022-12-14T12:11:13.129Z,213.75
2022-12-14T12:12:12.597Z,219.38
2022-12-14T12:13:12.670Z,225.00
2022-12-14T12:14:12.710Z,230.63
2022-12-14T12:15:13.629Z,225.00
2022-12-14T12:16:12.804Z,219.38
2022-12-14T12:17:12.844Z,213.75
2022-12-14T12:18:12.863Z,208.13
2022-12-14T12:19:13.020Z,196.88
2022-12-14T12:20:12.944Z,191.25
2022-12-14T12:21:13.627Z,191.25
2022-12-14T12:22:13.139Z,180.00
2022-12-14T12:23:13.103Z,163.13
2022-12-14T12:24:13.148Z,151.88
2022-12-14T12:25:33.648Z,146.25
2022-12-14T12:26:13.210Z,140.63
2022-12-14T12:27:13.361Z,140.63
2022-12-14T12:28:13.406Z,135.00
2022-12-14T12:29:13.336Z,123.75
2022-12-14T12:30:14.191Z,118.13
2022-12-14T12:31:13.508Z,118.13
2022-12-14T12:32:13.496Z,123.75
2022-12-14T12:33:13.631Z,129.38
2022-12-14T12:34:13.571Z,135.00
2022-12-14T12:35:14.186Z,135.00
2022-12-14T12:36:13.664Z,129.38
2022-12-14T12:37:26.465Z,129.38
2022-12-14T12:38:13.830Z,129.38
2022-12-14T12:39:50.709Z,123.75
2022-12-14T12:40:13.821Z,112.50
2022-12-14T12:41:13.895Z,101.25
2022-12-14T12:42:13.869Z,95.63
2022-12-14T12:43:13.927Z,95.63
2022-12-14T12:44:14.712Z,95.63
2022-12-14T12:45:14.179Z,84.38
2022-12-14T12:46:14.158Z,78.75
2022-12-14T12:47:40.066Z,78.75
2022-12-14T12:48:14.149Z,90.00
2022-12-14T12:49:14.247Z,95.63
2022-12-14T12:50:14.376Z,90.00
2022-12-14T12:51:14.328Z,84.38
2022-12-14T12:52:14.344Z,78.75
2022-12-14T12:53:14.378Z,73.13
2022-12-14T12:54:14.477Z,78.75
2022-12-14T12:55:14.456Z,84.38
2022-12-14T12:56:14.483Z,90.00
2022-12-14T12:57:14.545Z,90.00
2022-12-14T12:58:14.561Z,95.63
2022-12-14T12:59:14.740Z,90.00
2022-12-14T13:00:14.720Z,95.63
2022-12-14T13:01:15.373Z,90.00
2022-12-14T13:02:14.922Z,90.00
2022-12-14T13:03:14.904Z,78.75
2022-12-14T13:04:14.882Z,73.13
2022-12-14T13:05:44.970Z,78.75
2022-12-14T13:06:14.911Z,84.38
2022-12-14T13:07:15.714Z,84.38
2022-12-14T13:08:15.048Z,90.00
2022-12-14T13:09:15.042Z,84.38
2022-12-14T13:10:15.068Z,73.13
2022-12-14T13:11:26.206Z,73.13
2022-12-14T13:12:15.737Z,67.50
2022-12-14T13:13:15.257Z,67.50
2022-12-14T13:14:15.233Z,67.50
2022-12-14T13:15:15.599Z,67.50
2022-12-14T13:16:15.397Z,67.50
2022-12-14T13:17:15.409Z,73.13
2022-12-14T13:18:40.714Z,73.13
2022-12-14T13:19:49.722Z,73.13
2022-12-14T13:20:15.539Z,73.13
2022-12-14T13:21:15.636Z,73.13
2022-12-14T13:22:15.594Z,78.75
2022-12-14T13:23:43.595Z,84.38
2022-12-14T13:24:15.752Z,78.75
2022-12-14T13:25:15.715Z,67.50
2022-12-14T13:26:48.593Z,61.88
2022-12-14T13:27:17.984Z,50.63
2022-12-14T13:28:15.822Z,39.38
2022-12-14T13:29:15.841Z,33.75
2022-12-14T13:30:16.692Z,28.13
2022-12-14T13:31:16.027Z,33.75
2022-12-14T13:32:16.697Z,33.75
2022-12-14T13:33:16.720Z,22.50
2022-12-14T13:34:16.067Z,22.50
2022-12-14T13:35:18.682Z,22.50
2022-12-14T13:36:16.165Z,22.50
2022-12-14T13:37:16.200Z,22.50
2022-12-14T13:38:16.189Z,28.13
2022-12-14T13:39:16.320Z,28.13
2022-12-14T13:40:16.372Z,28.13
2022-12-14T13:41:16.312Z,28.13
2022-12-14T13:42:16.374Z,33.75
2022-12-14T13:43:16.428Z,33.75
2022-12-14T13:44:16.427Z,33.75
2022-12-14T13:45:17.192Z,28.13
2022-12-14T13:46:16.575Z,22.50
2022-12-14T13:47:16.661Z,28.13
2022-12-14T13:48:16.728Z,28.13
2022-12-14T13:49:16.712Z,28.13
2022-12-14T13:51:17.680Z,33.75
2022-12-14T13:52:16.803Z,33.75
2022-12-14T13:53:16.818Z,28.13
2022-12-14T13:54:16.840Z,28.13
2022-12-14T13:55:17.704Z,28.13
2022-12-14T13:56:16.980Z,22.50
2022-12-14T13:57:17.012Z,22.50
2022-12-14T13:58:17.078Z,22.50
2022-12-14T13:59:17.709Z,28.13
2022-12-14T14:00:17.718Z,22.50
2022-12-14T14:01:17.177Z,16.88
2022-12-14T14:02:19.995Z,22.50
2022-12-14T14:03:17.505Z,16.88
2022-12-14T14:04:17.387Z,16.88
2022-12-14T14:05:18.204Z,16.88
2022-12-14T14:06:17.371Z,16.88
2022-12-14T14:07:17.408Z,16.88
2022-12-14T14:08:17.502Z,16.88
2022-12-14T14:09:17.481Z,11.25
2022-12-14T14:10:18.212Z,16.88
2022-12-14T14:11:36.299Z,16.88
2022-12-14T14:12:17.607Z,22.50
2022-12-14T14:13:17.724Z,22.50
2022-12-14T14:14:17.688Z,22.50
2022-12-14T14:15:21.314Z,16.88
2022-12-14T14:16:28.543Z,16.88
2022-12-14T14:17:17.899Z,22.50
2022-12-14T14:18:17.860Z,16.88
2022-12-14T14:19:17.837Z,16.88
2022-12-14T14:20:18.660Z,11.25
2022-12-14T14:21:17.924Z,11.25
2022-12-14T14:22:26.064Z,11.25
2022-12-14T14:23:18.054Z,11.25
2022-12-14T14:24:18.682Z,11.25
2022-12-14T14:25:18.670Z,11.25
2022-12-14T14:26:18.126Z,11.25
2022-12-14T14:27:18.165Z,11.25
2022-12-14T14:28:22.644Z,22.50
2022-12-14T14:29:18.237Z,16.88
2022-12-14T14:30:19.172Z,11.25
2022-12-14T14:31:19.246Z,11.25
2022-12-14T14:32:18.397Z,11.25
2022-12-14T14:33:44.387Z,11.25
2022-12-14T14:34:21.971Z,11.25
2022-12-14T14:35:19.164Z,11.25
2022-12-14T14:36:18.518Z,11.25
2022-12-14T14:37:19.176Z,16.88
2022-12-14T14:38:18.646Z,16.88
2022-12-14T14:39:47.044Z,11.25
2022-12-14T14:40:26.173Z,11.25
2022-12-14T14:41:19.411Z,16.88
2022-12-14T14:42:18.792Z,16.88
2022-12-14T14:43:18.807Z,11.25
2022-12-14T14:44:18.850Z,11.25
2022-12-14T14:45:18.916Z,16.88
2022-12-14T14:46:22.806Z,16.88
2022-12-14T14:47:19.039Z,16.88
2022-12-14T14:48:19.021Z,16.88
2022-12-14T14:49:19.037Z,16.88
2022-12-14T14:50:19.123Z,11.25
2022-12-14T14:51:19.148Z,11.25
2022-12-14T14:52:19.164Z,11.25
2022-12-14T14:53:19.230Z,5.63
2022-12-14T14:54:53.989Z,5.63
2022-12-14T14:55:51.390Z,5.63
2022-12-14T14:56:19.333Z,5.63
2022-12-14T14:57:19.368Z,11.25
2022-12-14T14:58:28.280Z,11.25
2022-12-14T14:59:19.463Z,11.25
2022-12-14T15:00:19.484Z,11.25
2022-12-14T15:01:19.595Z,5.63
2022-12-14T15:02:20.271Z,5.63
2022-12-14T15:03:19.725Z,5.63
2022-12-14T15:04:23.418Z,5.63
2022-12-14T15:06:19.731Z,5.63
2022-12-14T15:07:19.781Z,5.63
2022-12-14T15:08:19.821Z,5.63
2022-12-14T15:09:19.875Z,0.00
2022-12-14T15:10:22.751Z,5.63
2022-12-14T15:11:19.933Z,5.63
2022-12-14T15:12:19.995Z,5.63
2022-12-14T15:13:20.703Z,5.63
2022-12-14T15:14:20.705Z,0.00
2022-12-14T15:15:20.697Z,0.00
2022-12-14T15:16:20.183Z,5.63
2022-12-14T15:17:20.191Z,5.63
2022-12-14T15:18:20.217Z,5.63
2022-12-14T15:19:20.257Z,5.63
2022-12-14T15:20:21.602Z,0.00
2022-12-14T15:21:20.374Z,0.00
2022-12-14T15:22:20.454Z,0.00
2022-12-14T15:23:20.459Z,0.00
2022-12-14T15:24:20.454Z,0.00
2022-12-14T15:25:20.532Z,0.00
2022-12-14T15:26:20.588Z,0.00
2022-12-14T15:27:20.603Z,0.00
2022-12-14T15:28:20.691Z,0.00
2022-12-14T15:29:20.740Z,0.00
2022-12-14T15:30:20.827Z,0.00
2022-12-14T15:31:20.851Z,0.00
2022-12-14T15:32:21.740Z,0.00
2022-12-14T15:33:20.964Z,0.00
2022-12-14T15:34:20.905Z,0.00
2022-12-14T15:35:20.906Z,0.00
2022-12-14T15:36:20.981Z,0.00
2022-12-14T15:37:20.990Z,0.00